aviador You're here:

KHSI Decoded Metar

HASTINGS in NE, USA
Report Time2017-06-29 07:06:00
UTC Time2017-06-29 07:19:44
Flight Rules vfr VFR
Wind180° at 04 kt
W.Decomp.*RWY 14: 3.4 kt HW 2.2 kt RCW
RWY 22: 2.7 kt HW 2.9 kt LCW
W.Rank180° ranks 1
Current wind is below 180° avg. (8.4)
Visibility9999 m
Phenomena:N/A
Clouds:Few 110 Hf
Expected CloudBase > 2,800 ft AGL from Temp-Dew spread
CeilingNone
Temp23°C (ISA +12)
Dew Point16°C (65% RH)
QNH1008 hPa
Density Alt3,730 ft
Elevation1,939 ft
Report Wrong Elevation
Raw Report
KHSI 290706Z AUTO 18004KT 10SM FEW110 23/16 A2978=

Extra information for KHSI:More info

Metar Taf Metar & Taf Last 4 Metars F.Rules Stats Wind Profile Meteogram Temp Stats Airport Information Weather charts Add Link Nearby VenuesMetar ALERT Operation Metar Decoded Social comments

AIRNAV info for KHSI